Time;durP1;ratioP1;P1;durP2;ratioP2;P2;SDS_P1;SDS_P2;PMS_P1;PMS_P2;Temp;Humidity;BMP_temperature;BMP_pressure;BME280_temperature;BME280_humidity;BME280_pressure;Samples;Min_cycle;Max_cycle;Signal;HPM_P1;HPM_P2
2022/01/29 00:00:32;;;;;;;7.83;3.70;;;;;;;0.70;80.14;101051.67;1459815;86;22546;-86
2022/01/29 00:02:59;;;;;;;5.73;3.00;;;;;;;0.79;79.62;101055.16;1468003;86;22681;-86
2022/01/29 00:05:26;;;;;;;5.00;2.63;;;;;;;0.88;79.45;101060.41;1455172;88;21635;-86
2022/01/29 00:07:53;;;;;;;5.53;2.63;;;;;;;0.95;78.92;101066.18;1455918;89;21707;-86
2022/01/29 00:10:21;;;;;;;4.30;2.43;;;;;;;0.98;78.56;101069.95;1437014;89;21780;-86
2022/01/29 00:12:48;;;;;;;4.13;2.07;;;;;;;0.98;76.95;101068.64;1454278;88;21704;-86
2022/01/29 00:15:15;;;;;;;6.53;2.40;;;;;;;1.06;76.98;101058.71;1450626;88;21806;-86
2022/01/29 00:17:43;;;;;;;4.77;2.43;;;;;;;1.10;75.35;101070.70;1436805;87;21695;-86
2022/01/29 00:20:11;;;;;;;5.23;2.37;;;;;;;1.15;73.98;101071.78;1441251;89;21839;-87
2022/01/29 00:22:38;;;;;;;3.07;1.70;;;;;;;1.16;72.79;101075.63;1459287;88;22565;-88
2022/01/29 00:25:07;;;;;;;4.60;1.70;;;;;;;1.16;70.18;101085.22;1447689;88;21772;-86
2022/01/29 00:27:35;;;;;;;3.30;1.13;;;;;;;1.18;69.23;101080.33;1435389;89;21559;-84
2022/01/29 00:30:09;;;;;;;4.27;2.13;;;;;;;1.23;68.33;101078.78;1435884;90;21653;-85
2022/01/29 00:32:36;;;;;;;5.90;1.50;;;;;;;1.22;67.69;101084.47;1418311;90;21642;-83
2022/01/29 00:35:04;;;;;;;2.73;1.40;;;;;;;1.24;67.35;101089.62;1438554;88;21836;-84
2022/01/29 00:37:32;;;;;;;3.80;1.30;;;;;;;1.24;67.69;101090.47;1414470;91;21796;-83
2022/01/29 00:40:00;;;;;;;2.30;1.37;;;;;;;1.23;67.33;101088.75;1425946;90;21649;-84
2022/01/29 00:42:27;;;;;;;2.93;1.00;;;;;;;1.21;66.59;101094.95;1426049;90;21671;-84
2022/01/29 00:44:54;;;;;;;2.27;1.20;;;;;;;1.15;66.15;101089.56;1422425;90;21686;-85
2022/01/29 00:47:21;;;;;;;2.17;0.97;;;;;;;1.17;65.72;101093.42;1446561;89;21804;-84
2022/01/29 00:49:49;;;;;;;2.17;1.07;;;;;;;1.15;65.17;101086.95;1432540;88;21682;-85
2022/01/29 00:52:16;;;;;;;1.50;1.00;;;;;;;1.12;64.82;101091.88;1437594;87;21600;-84
2022/01/29 00:54:45;;;;;;;1.60;0.80;;;;;;;1.12;65.36;101090.58;1464906;86;21621;-83
2022/01/29 00:57:12;;;;;;;2.70;1.13;;;;;;;1.12;66.18;101101.01;1431063;88;21706;-83
2022/01/29 00:59:41;;;;;;;2.43;1.00;;;;;;;1.07;65.69;101098.23;1452087;88;21740;-83
2022/01/29 01:02:09;;;;;;;2.47;1.10;;;;;;;1.07;66.48;101106.89;1454914;88;22750;-84
2022/01/29 01:04:39;;;;;;;6.97;1.40;;;;;;;1.03;66.35;101107.08;1454986;88;22322;-83
2022/01/29 01:07:08;;;;;;;2.33;0.90;;;;;;;0.99;66.47;101114.67;1461275;88;21655;-83
2022/01/29 01:09:37;;;;;;;2.10;1.10;;;;;;;0.95;66.62;101111.80;1467025;86;21693;-83
2022/01/29 01:12:05;;;;;;;2.43;1.43;;;;;;;0.93;67.14;101104.06;1456814;86;21766;-83
2022/01/29 01:14:32;;;;;;;2.73;1.43;;;;;;;0.92;67.42;101104.11;1437440;89;21635;-84
2022/01/29 01:17:00;;;;;;;3.40;1.30;;;;;;;0.85;67.53;101100.48;1406788;90;21706;-85
2022/01/29 01:19:27;;;;;;;1.83;1.07;;;;;;;0.81;67.65;101102.86;1448469;87;21655;-85
2022/01/29 01:21:56;;;;;;;3.77;1.50;;;;;;;0.75;67.90;101103.13;1440752;87;21633;-85
2022/01/29 01:24:24;;;;;;;4.30;2.23;;;;;;;0.68;68.02;101113.42;1422543;89;21561;-85
2022/01/29 01:26:51;;;;;;;5.67;1.60;;;;;;;0.65;68.44;101117.47;1456485;88;21530;-85
2022/01/29 01:29:18;;;;;;;3.57;1.53;;;;;;;0.62;68.57;101120.20;1460852;87;22724;-84
2022/01/29 01:31:46;;;;;;;4.13;2.03;;;;;;;0.60;68.65;101114.20;1465323;87;21765;-83
2022/01/29 01:34:15;;;;;;;4.77;1.70;;;;;;;0.59;68.79;101112.53;1459516;88;21803;-83
2022/01/29 01:36:54;;;;;;;3.60;2.33;;;;;;;0.55;68.89;101117.50;1463757;88;21549;-83
2022/01/29 01:39:21;;;;;;;6.30;2.33;;;;;;;0.49;68.96;101123.81;1451771;86;21791;-85
2022/01/29 01:41:58;;;;;;;4.47;2.87;;;;;;;0.45;69.08;101118.33;1461432;87;21835;-85
2022/01/29 01:44:21;;;;;;;3.57;2.40;;;;;;;0.42;69.19;101125.81;1461877;88;21819;-85
2022/01/29 01:46:49;;;;;;;2.40;1.73;;;;;;;0.44;69.33;101127.06;1468559;88;21581;-85
2022/01/29 01:49:16;;;;;;;3.07;1.63;;;;;;;0.42;69.37;101127.58;1461300;87;22742;-85
2022/01/29 01:51:43;;;;;;;5.43;2.10;;;;;;;0.37;69.31;101126.45;1476043;87;22245;-85
2022/01/29 01:54:11;;;;;;;2.20;1.37;;;;;;;0.31;69.28;101132.39;1464688;86;21709;-83
2022/01/29 01:56:38;;;;;;;2.93;1.57;;;;;;;0.12;68.56;101137.08;1448694;86;21799;-83
2022/01/29 01:59:05;;;;;;;2.57;1.60;;;;;;;0.13;69.29;101138.77;1465671;86;22723;-85
2022/01/29 02:01:32;;;;;;;3.70;2.20;;;;;;;0.10;69.35;101143.25;1453083;88;21733;-85
2022/01/29 02:04:01;;;;;;;4.87;1.30;;;;;;;0.07;69.21;101140.78;1451193;88;22190;-85
2022/01/29 02:06:29;;;;;;;2.27;1.00;;;;;;;0.04;69.36;101150.02;1475162;88;21658;-85
2022/01/29 02:09:00;;;;;;;3.37;1.63;;;;;;;0.02;69.25;101149.22;1469797;87;22783;-85
2022/01/29 02:11:29;;;;;;;3.77;1.40;;;;;;;0.00;69.41;101149.30;1463488;87;21744;-85
2022/01/29 02:13:58;;;;;;;3.07;1.57;;;;;;;-0.05;68.93;101155.98;1460611;86;21567;-85
2022/01/29 02:16:31;;;;;;;2.35;1.50;;;;;;;-0.03;68.95;101163.28;1452631;87;22174;-85
2022/01/29 02:18:58;;;;;;;4.70;2.00;;;;;;;-0.05;67.97;101166.39;1469637;87;22343;-85
2022/01/29 02:21:27;;;;;;;4.62;1.50;;;;;;;-0.04;67.37;101165.47;1461036;88;21721;-85
2022/01/29 02:23:55;;;;;;;4.53;1.97;;;;;;;0.02;67.83;101160.94;1470679;88;21470;-84
2022/01/29 02:26:22;;;;;;;4.65;2.05;;;;;;;0.05;67.63;101160.81;1475513;87;22159;-83
2022/01/29 02:28:49;;;;;;;3.87;1.40;;;;;;;0.05;67.32;101168.62;1460131;88;21479;-83
2022/01/29 02:31:16;;;;;;;4.57;2.00;;;;;;;0.08;67.72;101171.09;1471068;87;22025;-85
2022/01/29 02:33:44;;;;;;;4.50;2.60;;;;;;;0.10;67.74;101177.09;1448807;88;21787;-85
2022/01/29 02:36:12;;;;;;;4.37;1.80;;;;;;;0.08;67.73;101186.71;1460020;88;21824;-85
2022/01/29 02:38:39;;;;;;;6.13;1.87;;;;;;;0.04;67.56;101186.00;1467404;86;23810;-85
2022/01/29 02:41:07;;;;;;;3.10;1.67;;;;;;;0.01;67.58;101187.88;1478977;86;21700;-85
2022/01/29 02:43:43;;;;;;;3.23;1.47;;;;;;;-0.04;67.35;101188.05;1461545;88;21419;-85
2022/01/29 02:46:19;;;;;;;3.43;1.27;;;;;;;-0.10;67.27;101188.30;1461719;88;21722;-85
2022/01/29 02:48:36;;;;;;;2.73;1.33;;;;;;;-0.12;67.47;101188.34;1458702;86;22024;-85
2022/01/29 02:51:03;;;;;;;3.92;1.12;;;;;;;-0.13;67.22;101193.17;1462031;87;22289;-83
2022/01/29 02:53:30;;;;;;;3.50;1.67;;;;;;;-0.13;67.36;101197.07;1462104;87;21514;-83
2022/01/29 02:55:57;;;;;;;2.80;1.30;;;;;;;-0.13;67.12;101203.58;1460341;88;21564;-84
2022/01/29 02:58:24;;;;;;;3.00;1.17;;;;;;;-0.14;66.64;101205.80;1455390;88;21566;-84
2022/01/29 03:00:52;;;;;;;2.37;0.98;;;;;;;-0.11;66.46;101210.88;1457335;88;21869;-83
2022/01/29 03:03:19;;;;;;;2.60;1.10;;;;;;;-0.05;66.65;101221.05;1463824;87;21477;-82
2022/01/29 03:05:46;;;;;;;3.77;1.30;;;;;;;0.00;66.79;101215.67;1468290;88;21485;-82
2022/01/29 03:08:13;;;;;;;5.63;2.63;;;;;;;0.08;66.94;101216.19;1458885;87;21693;-83
2022/01/29 03:10:40;;;;;;;8.80;1.57;;;;;;;0.12;66.49;101221.68;1462345;88;21639;-84
2022/01/29 03:13:09;;;;;;;4.08;1.67;;;;;;;0.17;66.40;101226.25;1466676;87;21640;-84
2022/01/29 03:15:36;;;;;;;5.07;2.13;;;;;;;0.26;67.07;101222.44;1470881;87;21426;-84
2022/01/29 03:18:03;;;;;;;4.00;1.10;;;;;;;0.32;66.79;101233.05;1467442;87;23503;-83
2022/01/29 03:22:59;;;;;;;2.97;1.33;;;;;;;0.35;66.28;101235.07;1463146;88;21684;-84
2022/01/29 03:25:27;;;;;;;5.30;1.47;;;;;;;0.38;66.10;101235.41;1456343;87;21817;-84
2022/01/29 03:27:54;;;;;;;2.70;1.13;;;;;;;0.40;65.10;101241.38;1464164;87;22629;-83
2022/01/29 03:30:21;;;;;;;2.63;1.40;;;;;;;0.41;64.95;101240.48;1460833;88;21588;-84
2022/01/29 03:32:48;;;;;;;4.60;1.60;;;;;;;0.45;65.37;101246.79;1462943;88;22596;-84
2022/01/29 03:35:16;;;;;;;4.63;2.00;;;;;;;0.48;64.87;101247.58;1465733;87;22175;-84
2022/01/29 03:37:43;;;;;;;4.73;1.50;;;;;;;0.48;64.89;101244.98;1453381;88;22458;-85
2022/01/29 03:40:11;;;;;;;2.13;0.90;;;;;;;0.53;65.36;101241.73;1463287;87;22674;-85
2022/01/29 03:42:46;;;;;;;4.50;1.40;;;;;;;0.52;64.00;101243.93;1440997;88;21790;-84
2022/01/29 03:45:09;;;;;;;3.20;1.37;;;;;;;0.53;65.25;101252.16;1457210;88;21729;-84
2022/01/29 03:47:36;;;;;;;3.50;1.53;;;;;;;0.52;65.43;101254.34;1475487;88;21752;-86
2022/01/29 03:50:04;;;;;;;4.07;1.30;;;;;;;0.49;65.07;101253.17;1464516;87;21514;-86
2022/01/29 03:52:32;;;;;;;3.27;0.87;;;;;;;0.48;64.92;101256.70;1448244;88;21676;-86
2022/01/29 03:54:59;;;;;;;5.77;2.27;;;;;;;0.47;65.17;101262.37;1457974;88;21745;-87
2022/01/29 03:57:26;;;;;;;3.07;1.00;;;;;;;0.39;64.75;101263.97;1464409;88;21729;-88
2022/01/29 03:59:53;;;;;;;2.27;0.87;;;;;;;0.27;64.82;101268.38;1463454;88;22625;-87
2022/01/29 04:02:20;;;;;;;2.03;0.90;;;;;;;0.26;64.71;101273.20;1439069;89;21696;-85
2022/01/29 04:04:47;;;;;;;2.60;1.03;;;;;;;0.27;65.06;101278.80;1460264;88;21562;-85
2022/01/29 04:07:15;;;;;;;8.33;2.73;;;;;;;0.28;65.22;101276.57;1456927;87;22475;-84
2022/01/29 04:09:48;;;;;;;2.27;1.10;;;;;;;0.27;65.30;101279.25;1451809;88;21869;-85
2022/01/29 04:12:11;;;;;;;4.50;1.47;;;;;;;0.26;65.06;101275.81;1451761;89;21964;-86
2022/01/29 04:14:39;;;;;;;1.97;1.50;;;;;;;0.33;65.23;101282.45;1453705;89;21799;-85
2022/01/29 04:17:07;;;;;;;3.00;1.17;;;;;;;0.36;65.24;101288.00;1425127;90;21953;-85
2022/01/29 04:19:35;;;;;;;5.80;1.40;;;;;;;0.38;64.65;101288.80;1414935;91;22460;-84
2022/01/29 04:22:07;;;;;;;2.80;1.40;;;;;;;0.42;64.56;101286.45;1436134;90;21791;-85
2022/01/29 04:24:34;;;;;;;1.90;1.10;;;;;;;0.45;64.77;101278.05;1422767;91;21930;-85
2022/01/29 04:27:33;;;;;;;7.43;3.13;;;;;;;0.47;64.58;101279.77;1420900;91;21684;-84
2022/01/29 04:29:51;;;;;;;16.97;7.27;;;;;;;0.45;64.32;101277.20;1429805;89;22529;-84
2022/01/29 04:32:11;;;;;;;7.87;3.97;;;;;;;0.40;63.80;101269.59;1431519;88;22852;-84
2022/01/29 04:34:35;;;;;;;4.60;2.02;;;;;;;0.36;64.24;101275.81;1433971;89;21806;-85
2022/01/29 04:37:03;;;;;;;16.63;8.33;;;;;;;0.33;64.27;101282.91;1434254;90;21393;-85
2022/01/29 04:39:30;;;;;;;56.50;21.77;;;;;;;0.29;64.29;101283.50;1432285;89;22722;-85
2022/01/29 04:41:57;;;;;;;15.37;6.50;;;;;;;0.22;63.82;101280.72;1434786;87;23152;-84
2022/01/29 04:44:24;;;;;;;72.47;31.87;;;;;;;0.21;64.37;101282.95;1440713;86;21462;-85
2022/01/29 04:46:51;;;;;;;8.33;4.17;;;;;;;0.19;64.65;101281.69;1459408;86;21830;-85
2022/01/29 04:49:19;;;;;;;36.13;15.30;;;;;;;0.15;64.65;101285.80;1446145;88;21710;-85
2022/01/29 04:51:46;;;;;;;129.47;50.27;;;;;;;0.12;64.84;101285.92;1443304;86;21671;-84
2022/01/29 04:54:14;;;;;;;119.90;51.57;;;;;;;0.10;64.97;101291.16;1451711;86;21773;-85
2022/01/29 04:56:41;;;;;;;80.73;34.73;;;;;;;0.06;65.08;101285.70;1433762;87;21786;-85
2022/01/29 04:59:11;;;;;;;111.43;45.30;;;;;;;0.03;65.19;101282.34;1448950;87;21660;-84
2022/01/29 05:01:39;;;;;;;108.77;42.70;;;;;;;-0.02;65.29;101291.19;1449686;87;21551;-86
2022/01/29 05:04:06;;;;;;;93.33;33.93;;;;;;;-0.08;65.65;101295.33;1424011;89;21731;-87
2022/01/29 05:06:33;;;;;;;87.03;34.60;;;;;;;-0.16;65.74;101306.48;1433649;89;21906;-86
2022/01/29 05:09:00;;;;;;;74.10;28.83;;;;;;;-0.17;65.77;101309.13;1422977;90;21700;-87
2022/01/29 05:11:28;;;;;;;52.77;22.00;;;;;;;-0.18;65.83;101308.73;1432018;86;22641;-86
2022/01/29 05:14:33;;;;;;;49.48;20.85;;;;;;;-0.22;65.95;101311.92;1424749;89;21656;-84
2022/01/29 05:26:49;;;;;;;47.17;19.12;;;;;;;-0.21;66.13;101314.06;1441754;89;21430;-85
2022/01/29 05:27:53;;;;;;;32.80;13.38;;;;;;;-0.34;67.07;101333.19;1436128;89;21507;-84
2022/01/29 05:30:20;;;;;;;29.57;12.63;;;;;;;-0.41;67.52;101343.40;1439078;89;22324;-85
2022/01/29 05:33:03;;;;;;;32.95;13.65;;;;;;;-0.54;67.45;101346.45;1427380;90;21429;-84
2022/01/29 05:35:45;;;;;;;62.25;24.65;;;;;;;-0.56;67.55;101347.40;1442598;87;22398;-86
2022/01/29 05:38:12;;;;;;;35.78;15.75;;;;;;;-0.54;67.60;101342.55;1445533;89;21463;-86
2022/01/29 05:40:39;;;;;;;45.17;20.50;;;;;;;-0.51;67.69;101348.94;1418600;90;21595;-86
2022/01/29 05:43:07;;;;;;;45.23;20.88;;;;;;;-0.44;67.79;101350.02;1442993;89;22405;-87
2022/01/29 05:45:34;;;;;;;38.85;15.70;;;;;;;-0.36;67.77;101347.98;1429287;90;21540;-86
2022/01/29 05:48:01;;;;;;;25.82;12.18;;;;;;;-0.33;67.64;101356.52;1433016;88;23764;-86
2022/01/29 05:50:28;;;;;;;26.42;11.30;;;;;;;-0.31;67.65;101356.48;1434171;89;21371;-86
2022/01/29 05:52:55;;;;;;;20.67;8.80;;;;;;;-0.31;67.53;101353.88;1433795;89;21532;-85
2022/01/29 05:55:22;;;;;;;19.85;9.03;;;;;;;-0.32;67.48;101357.37;1436412;88;21859;-87
2022/01/29 05:57:49;;;;;;;26.23;10.68;;;;;;;-0.34;67.53;101361.34;1434595;87;21430;-86
2022/01/29 06:00:17;;;;;;;17.52;7.60;;;;;;;-0.34;67.76;101375.65;1438648;89;23378;-86
2022/01/29 06:02:44;;;;;;;19.37;7.95;;;;;;;-0.34;67.78;101373.50;1447964;88;21661;-86
2022/01/29 06:05:12;;;;;;;17.02;7.95;;;;;;;-0.36;67.74;101373.55;1452512;88;22367;-86
2022/01/29 06:07:39;;;;;;;16.30;6.97;;;;;;;-0.38;67.87;101375.80;1452487;90;21397;-86
2022/01/29 06:10:07;;;;;;;14.30;5.40;;;;;;;-0.46;67.92;101380.84;1450356;89;22491;-87
2022/01/29 06:12:34;;;;;;;8.35;4.15;;;;;;;-0.50;68.01;101383.13;1451047;89;21478;-89
2022/01/29 06:15:02;;;;;;;14.35;6.37;;;;;;;-0.50;68.07;101386.19;1446880;90;21597;-89
2022/01/29 06:17:29;;;;;;;9.10;3.80;;;;;;;-0.49;68.15;101386.15;1452772;90;21464;-89
2022/01/29 06:19:56;;;;;;;7.25;3.17;;;;;;;-0.49;68.08;101384.84;1446658;90;21568;-90
2022/01/29 06:22:24;;;;;;;8.18;3.75;;;;;;;-0.48;67.93;101383.09;1446533;89;21434;-82
2022/01/29 06:24:51;;;;;;;10.50;3.27;;;;;;;-0.46;68.00;101378.70;1426440;89;21428;-83
2022/01/29 06:27:18;;;;;;;7.75;3.67;;;;;;;-0.41;67.96;101385.02;1451757;90;21434;-82
2022/01/29 06:29:45;;;;;;;11.00;5.00;;;;;;;-0.38;67.84;101388.34;1422952;88;21590;-82
2022/01/29 06:32:12;;;;;;;13.62;5.67;;;;;;;-0.41;67.81;101387.62;1454768;88;21412;-83
2022/01/29 06:34:39;;;;;;;18.75;6.90;;;;;;;-0.46;67.75;101387.80;1457771;89;22351;-84
2022/01/29 06:37:06;;;;;;;175.68;62.35;;;;;;;-0.52;68.04;101392.76;1450639;90;21450;-85
2022/01/29 06:39:33;;;;;;;389.77;141.53;;;;;;;-0.57;68.19;101395.96;1456754;90;22500;-85
2022/01/29 06:42:01;;;;;;;249.75;91.50;;;;;;;-0.55;68.16;101387.63;1451837;90;21419;-85
2022/01/29 06:44:28;;;;;;;116.97;42.58;;;;;;;-0.55;68.05;101390.69;1452721;90;21563;-85
2022/01/29 06:46:55;;;;;;;68.42;27.27;;;;;;;-0.54;68.02;101396.31;1446968;90;22351;-85
2022/01/29 06:49:22;;;;;;;43.30;16.97;;;;;;;-0.55;67.89;101397.19;1435546;89;21486;-84
2022/01/29 06:51:49;;;;;;;25.08;11.08;;;;;;;-0.57;67.82;101397.27;1434058;89;22117;-86
2022/01/29 06:54:16;;;;;;;15.38;6.33;;;;;;;-0.58;67.55;101403.34;1436036;89;21412;-84
2022/01/29 06:56:43;;;;;;;19.42;7.53;;;;;;;-0.56;67.30;101400.70;1429503;90;22284;-85
2022/01/29 06:59:10;;;;;;;10.85;5.58;;;;;;;-0.56;66.70;101402.00;1442399;90;21480;-85
2022/01/29 07:01:38;;;;;;;11.33;5.60;;;;;;;-0.56;66.93;101393.75;1437536;90;21412;-85
2022/01/29 07:04:05;;;;;;;6.65;3.30;;;;;;;-0.51;66.45;101400.95;1402538;90;22685;-85
2022/01/29 07:06:32;;;;;;;5.83;2.80;;;;;;;-0.45;63.33;101399.89;1398391;91;21437;-85
2022/01/29 07:09:00;;;;;;;8.88;3.05;;;;;;;-0.30;64.54;101402.39;1397442;91;23188;-85
2022/01/29 07:11:29;;;;;;;8.38;2.72;;;;;;;-0.17;63.92;101398.89;1412667;90;21581;-85
2022/01/29 07:14:03;;;;;;;6.53;2.50;;;;;;;-0.04;63.87;101399.70;1402945;91;21445;-85
2022/01/29 07:16:34;;;;;;;7.13;2.73;;;;;;;0.03;61.83;101395.56;1420770;90;21735;-84
2022/01/29 07:19:03;;;;;;;8.50;3.90;;;;;;;0.15;62.84;101388.63;1414451;90;21846;-84
2022/01/29 07:21:31;;;;;;;5.77;3.03;;;;;;;0.27;61.48;101391.22;1412171;92;21590;-85
2022/01/29 07:23:58;;;;;;;18.80;4.47;;;;;;;0.32;60.06;101397.95;1409400;90;21871;-85
2022/01/29 07:26:25;;;;;;;8.30;3.40;;;;;;;0.50;61.22;101397.69;1418754;92;21765;-85
2022/01/29 07:28:52;;;;;;;7.20;3.27;;;;;;;0.59;59.89;101401.70;1424540;92;21731;-83
2022/01/29 07:31:21;;;;;;;7.83;3.60;;;;;;;0.70;61.13;101396.91;1410262;92;21705;-84
2022/01/29 07:33:49;;;;;;;16.37;7.70;;;;;;;0.74;59.33;101395.87;1413432;91;21846;-84
2022/01/29 07:36:18;;;;;;;35.60;16.73;;;;;;;0.91;61.17;101399.11;1404426;90;21742;-84
2022/01/29 07:38:45;;;;;;;10.23;4.60;;;;;;;1.03;61.43;101393.84;1408886;90;21652;-84
2022/01/29 07:41:12;;;;;;;11.47;4.97;;;;;;;1.11;60.82;101387.41;1425846;91;21554;-84
2022/01/29 07:43:39;;;;;;;6.27;3.43;;;;;;;1.19;60.36;101392.31;1419100;90;21614;-85
2022/01/29 07:46:07;;;;;;;9.53;3.27;;;;;;;1.24;59.72;101393.44;1416367;89;21766;31
2022/01/29 07:48:34;;;;;;;7.50;3.50;;;;;;;1.35;59.53;101399.89;1398124;91;21830;-82
2022/01/29 07:51:02;;;;;;;9.23;3.97;;;;;;;1.43;57.67;101394.80;1407033;90;21722;-84
2022/01/29 07:53:29;;;;;;;8.17;3.70;;;;;;;1.47;56.71;101386.78;1412862;91;22356;-85
2022/01/29 07:55:57;;;;;;;8.93;3.80;;;;;;;1.56;56.80;101388.15;1397905;92;21597;-84
2022/01/29 07:58:25;;;;;;;8.77;3.80;;;;;;;1.57;56.22;101383.30;1410542;92;21797;-85
2022/01/29 08:01:05;;;;;;;;;;;;;;;;;;;;;
2022/01/29 08:03:24;;;;;;;26.43;9.90;;;;;;;1.84;58.86;101396.05;1381997;92;21720;-89
2022/01/29 08:05:51;;;;;;;161.30;60.60;;;;;;;1.93;57.82;101389.14;1407325;90;21729;-84
2022/01/29 08:08:19;;;;;;;97.67;35.00;;;;;;;2.09;58.77;101390.13;1408021;89;21812;-85
2022/01/29 08:10:46;;;;;;;101.70;35.67;;;;;;;2.23;58.19;101396.03;1428699;90;21730;-85
2022/01/29 08:13:13;;;;;;;23.77;9.17;;;;;;;2.38;58.42;101403.15;1429906;90;21719;-87
2022/01/29 08:15:40;;;;;;;9.33;4.13;;;;;;;2.52;57.17;101394.67;1418771;89;21853;-85
2022/01/29 08:18:07;;;;;;;5.97;2.80;;;;;;;2.52;57.17;101394.67;1386653;90;21829;-87
2022/01/29 08:20:34;;;;;;;71.93;26.60;;;;;;;2.52;55.27;101397.75;1432971;89;22412;-85
2022/01/29 08:23:08;;;;;;;10.43;4.67;;;;;;;2.58;56.15;101387.84;1421995;89;23013;-85
2022/01/29 08:25:37;;;;;;;12.13;4.90;;;;;;;2.57;53.02;101386.63;1411129;90;23116;-85
2022/01/29 08:28:06;;;;;;;28.40;9.17;;;;;;;2.45;52.76;101394.59;1449848;89;21934;-86
2022/01/29 08:30:33;;;;;;;12.07;4.17;;;;;;;2.45;52.76;101394.59;1436138;89;21915;-86
2022/01/29 08:33:01;;;;;;;59.47;19.70;;;;;;;2.42;51.90;101399.96;1432427;88;22133;-87
2022/01/29 08:35:28;;;;;;;10.60;4.17;;;;;;;2.76;54.44;101404.88;1445181;88;21971;-84
2022/01/29 08:37:57;;;;;;;9.43;3.47;;;;;;;2.76;54.44;101404.88;1425441;87;22036;-86
2022/01/29 08:40:25;;;;;;;12.33;3.67;;;;;;;2.89;54.22;101404.69;1447028;87;22919;-85
2022/01/29 08:42:53;;;;;;;8.30;2.47;;;;;;;3.03;55.01;101398.32;1446591;88;21926;-85
2022/01/29 08:45:21;;;;;;;6.10;3.57;;;;;;;3.23;53.12;101397.34;1439422;88;22252;-85
2022/01/29 08:47:48;;;;;;;5.53;2.03;;;;;;;3.14;51.95;101399.95;1450645;88;22102;-85
2022/01/29 08:50:15;;;;;;;4.60;2.17;;;;;;;3.06;51.65;101394.24;1446337;88;22140;-85
2022/01/29 08:52:43;;;;;;;4.77;2.37;;;;;;;3.06;51.65;101394.24;1433171;88;22138;-85
2022/01/29 08:55:18;;;;;;;7.33;3.03;;;;;;;3.01;50.37;101390.16;1503784;85;22761;-85
2022/01/29 08:57:54;;;;;;;16.83;6.47;;;;;;;3.01;52.36;101396.23;1473221;86;22162;-87
2022/01/29 09:00:23;;;;;;;8.83;3.13;;;;;;;3.08;52.88;101396.77;1446407;88;22880;-85
2022/01/29 09:02:49;;;;;;;11.50;3.63;;;;;;;3.04;52.88;101384.78;1411732;88;22078;-85
2022/01/29 09:05:18;;;;;;;5.40;3.27;;;;;;;3.16;52.91;101364.11;1429357;88;22236;-86
2022/01/29 09:07:53;;;;;;;11.13;4.60;;;;;;;3.22;53.32;101373.38;1430950;87;22707;-84
2022/01/29 09:10:19;;;;;;;10.23;4.17;;;;;;;3.35;52.63;101378.39;1435720;88;22134;-85
2022/01/29 09:13:02;;;;;;;9.10;3.90;;;;;;;3.43;51.31;101378.48;1439415;88;22073;-85
2022/01/29 09:15:28;;;;;;;6.87;3.47;;;;;;;3.44;52.37;101378.85;1450260;88;22115;-85
2022/01/29 09:17:54;;;;;;;21.50;9.20;;;;;;;3.63;51.42;101384.00;1449845;89;22115;-86
2022/01/29 09:20:20;;;;;;;12.93;4.87;;;;;;;3.63;51.42;101384.00;1448785;90;23287;-84
2022/01/29 09:22:46;;;;;;;13.03;4.87;;;;;;;3.65;50.82;101380.81;1444100;89;22383;-84
2022/01/29 09:25:13;;;;;;;10.13;4.20;;;;;;;3.62;50.59;101379.20;1452193;89;23071;-85
2022/01/29 09:27:40;;;;;;;10.67;5.57;;;;;;;3.68;49.57;101372.80;1451142;90;22212;-85
2022/01/29 09:30:08;;;;;;;7.30;4.03;;;;;;;3.73;50.65;101370.33;1435156;90;22157;-84
2022/01/29 09:32:34;;;;;;;14.50;8.40;;;;;;;3.79;50.06;101375.70;1445877;89;22345;-85
2022/01/29 09:35:01;;;;;;;7.63;2.77;;;;;;;3.88;50.28;101369.97;1439397;89;22122;-84
2022/01/29 09:37:27;;;;;;;5.17;2.83;;;;;;;3.99;49.24;101368.09;1444376;89;22211;-85
2022/01/29 09:39:53;;;;;;;7.27;3.80;;;;;;;4.02;48.99;101360.91;1450164;88;22099;-83
2022/01/29 09:42:21;;;;;;;11.70;5.07;;;;;;;4.17;46.48;101361.89;1470757;88;22804;-84
2022/01/29 09:44:48;;;;;;;9.53;4.30;;;;;;;4.91;46.95;101369.08;1452803;88;21507;-85
2022/01/29 09:47:18;;;;;;;9.43;4.43;;;;;;;5.71;44.66;101363.53;1467807;88;21471;-85
2022/01/29 09:49:45;;;;;;;7.07;3.17;;;;;;;6.51;44.24;101358.11;1414071;91;22486;-85
2022/01/29 09:52:11;;;;;;;10.47;3.40;;;;;;;7.17;42.58;101354.62;1457711;88;21539;-85
2022/01/29 09:54:37;;;;;;;5.93;2.93;;;;;;;7.71;42.11;101350.97;1456030;88;22972;-84
2022/01/29 09:57:04;;;;;;;8.50;3.87;;;;;;;7.76;39.57;101348.83;1468055;88;21471;-85
2022/01/29 09:59:30;;;;;;;7.63;3.50;;;;;;;7.94;41.18;101338.81;1465127;88;21494;-85
2022/01/29 10:01:56;;;;;;;7.13;3.87;;;;;;;7.97;40.93;101341.23;1444508;88;21479;-85
2022/01/29 10:04:24;;;;;;;9.80;3.13;;;;;;;7.62;40.42;101341.91;1459696;88;21460;-84
2022/01/29 10:07:18;;;;;;;6.47;3.73;;;;;;;7.48;41.99;101349.05;1449457;88;21459;-84
2022/01/29 10:09:45;;;;;;;8.00;2.70;;;;;;;7.34;41.58;101348.22;1445773;88;21699;-85
2022/01/29 10:12:20;;;;;;;6.83;2.77;;;;;;;7.17;41.70;101348.52;1458642;86;21785;-86
2022/01/29 10:14:54;;;;;;;5.67;2.80;;;;;;;6.90;40.49;101341.48;1466567;88;21590;-84
2022/01/29 10:17:51;;;;;;;4.40;2.27;;;;;;;6.35;38.94;101339.83;1454451;89;21597;-85
2022/01/29 10:20:27;;;;;;;3.07;1.60;;;;;;;6.60;39.23;101346.98;1455499;89;21508;-85
2022/01/29 10:22:58;;;;;;;5.00;2.07;;;;;;;6.81;40.41;101341.27;1451553;89;22558;-85
2022/01/29 10:25:32;;;;;;;4.87;2.00;;;;;;;6.85;39.07;101332.21;1455425;89;21546;-84
2022/01/29 10:28:17;;;;;;;6.27;3.10;;;;;;;6.60;40.87;101332.52;1444577;89;21502;-85
2022/01/29 10:30:57;;;;;;;3.43;1.97;;;;;;;6.23;40.65;101325.68;1442242;89;21628;-85
2022/01/29 10:33:28;;;;;;;6.80;1.93;;;;;;;5.88;41.10;101335.28;1459754;89;21495;-84
2022/01/29 10:36:04;;;;;;;4.23;2.27;;;;;;;5.57;40.29;101343.35;1458452;89;21508;-85
2022/01/29 10:38:51;;;;;;;10.37;3.47;;;;;;;5.42;41.49;101339.40;1453174;89;21638;-85
2022/01/29 10:41:36;;;;;;;7.07;2.70;;;;;;;5.45;40.40;101337.53;1441391;87;21959;-84
2022/01/29 10:44:15;;;;;;;4.77;2.27;;;;;;;6.05;41.62;101333.42;1430477;89;21502;-85
2022/01/29 10:46:54;;;;;;;4.57;2.93;;;;;;;6.68;40.90;101332.87;1416906;92;22371;-87
2022/01/29 10:49:28;;;;;;;7.80;3.00;;;;;;;6.99;38.56;101326.88;1403123;91;21387;-88
2022/01/29 10:52:02;;;;;;;7.13;2.87;;;;;;;7.03;39.33;101325.74;1404097;92;21614;-82
2022/01/29 10:54:35;;;;;;;3.87;2.43;;;;;;;6.99;40.42;101319.84;1426726;91;22347;-82
2022/01/29 10:57:06;;;;;;;5.73;3.33;;;;;;;6.98;37.83;101318.14;1432030;91;21526;-83
2022/01/29 10:59:36;;;;;;;4.97;2.75;;;;;;;7.02;38.87;101306.95;1432652;91;22295;-82
2022/01/29 11:02:07;;;;;;;5.40;3.08;;;;;;;6.94;38.18;101310.09;1430503;91;21444;-81
2022/01/29 11:04:37;;;;;;;5.00;1.87;;;;;;;6.85;40.48;101308.53;1435616;91;21651;-82
2022/01/29 11:07:09;;;;;;;8.57;2.90;;;;;;;6.73;38.37;101300.53;1432859;90;21622;-82
2022/01/29 11:09:32;;;;;;;3.23;2.43;;;;;;;6.65;38.52;101294.92;1438236;90;21640;-82
2022/01/29 11:12:04;;;;;;;2.43;1.80;;;;;;;6.67;39.00;101291.70;1437104;91;21566;-82
2022/01/29 11:14:33;;;;;;;3.67;1.80;;;;;;;6.55;39.15;101297.78;1432406;90;22139;-82
2022/01/29 11:17:00;;;;;;;4.77;3.10;;;;;;;6.41;40.81;101296.04;1412657;92;22377;-82
2022/01/29 11:19:26;;;;;;;6.40;2.57;;;;;;;6.31;41.63;101293.17;1396238;92;22450;-82
2022/01/29 11:21:57;;;;;;;7.30;2.53;;;;;;;6.24;42.05;101283.14;1427867;91;21392;-82
2022/01/29 11:24:26;;;;;;;5.95;3.22;;;;;;;6.07;42.03;101281.14;1436289;91;22354;-82
2022/01/29 11:26:53;;;;;;;5.00;2.63;;;;;;;5.84;41.64;101292.20;1411052;92;21587;-82
2022/01/29 11:29:37;;;;;;;9.27;4.40;;;;;;;5.59;41.58;101291.11;1403660;92;22302;-82
2022/01/29 11:32:25;;;;;;;7.97;4.60;;;;;;;5.41;43.00;101296.19;1426064;91;21415;-82
2022/01/29 11:35:17;;;;;;;7.20;4.33;;;;;;;5.27;43.95;101299.64;1410121;91;21474;-82
2022/01/29 11:38:10;;;;;;;6.97;4.10;;;;;;;5.15;43.72;101297.73;1429161;91;22331;-83
2022/01/29 11:41:02;;;;;;;7.27;4.50;;;;;;;5.04;43.91;101302.80;1433900;90;21385;-82
2022/01/29 11:43:35;;;;;;;8.80;3.50;;;;;;;4.97;44.83;101283.45;1427839;90;21578;-82
2022/01/29 11:46:32;;;;;;;7.37;3.23;;;;;;;4.93;42.69;101287.20;1417801;91;21475;-82
2022/01/29 11:49:02;;;;;;;6.37;2.93;;;;;;;4.83;43.02;101278.17;1401638;92;22297;-82